Time;durP1;ratioP1;P1;durP2;ratioP2;P2;SDS_P1;SDS_P2;PMS_P1;PMS_P2;Temp;Humidity;BMP_temperature;BMP_pressure;BME280_temperature;BME280_humidity;BME280_pressure;Samples;Min_cycle;Max_cycle;Signal;HPM_P1;HPM_P2
2021/12/24 00:02:14;;;;;;;;;;;21.10;54.00;;;;;;4948260;28;19921;-82
2021/12/24 00:04:40;;;;;;;;;;;21.10;54.10;;;;;;4931914;29;19911;-82
2021/12/24 00:07:06;;;;;;;;;;;21.10;54.00;;;;;;4950539;28;19914;-81
2021/12/24 00:09:33;;;;;;;;;;;21.10;54.00;;;;;;4949221;28;19922;-80
2021/12/24 00:12:03;;;;;;;;;;;21.10;54.00;;;;;;4950851;28;19910;-81
2021/12/24 00:14:31;;;;;;;;;;;21.10;54.00;;;;;;4913768;29;19910;-83
2021/12/24 00:17:03;;;;;;;;;;;21.10;54.00;;;;;;4950740;28;20378;-82
2021/12/24 00:19:46;;;;;;;;;;;21.10;54.00;;;;;;4933642;29;19910;-82
2021/12/24 00:35:36;;;;;;;;;;;21.10;54.20;;;;;;4971403;28;19917;-86
2021/12/24 00:38:03;;;;;;;;;;;21.10;54.20;;;;;;4905330;29;19910;-83
2021/12/24 00:40:33;;;;;;;;;;;21.10;54.30;;;;;;4935290;29;19910;-83
2021/12/24 00:42:58;;;;;;;;;;;21.10;54.20;;;;;;4917206;29;19919;-82
2021/12/24 00:45:25;;;;;;;;;;;21.20;54.20;;;;;;4951705;29;19916;-83
2021/12/24 00:47:51;;;;;;;;;;;21.10;54.20;;;;;;4934580;29;20389;-84
2021/12/24 00:50:21;;;;;;;;;;;21.10;54.30;;;;;;4935838;29;19914;-86
2021/12/24 00:53:02;;;;;;;;;;;21.10;54.30;;;;;;4906584;29;19915;-84
2021/12/24 00:55:29;;;;;;;;;;;21.10;54.30;;;;;;4923063;29;20405;-84
2021/12/24 00:58:00;;;;;;;;;;;21.20;54.50;;;;;;4938162;29;19958;-81
2021/12/24 01:00:28;;;;;;;;;;;21.20;54.50;;;;;;4938085;29;20367;-83
2021/12/24 01:02:55;;;;;;;;;;;21.10;54.30;;;;;;4930575;29;20383;-82
2021/12/24 01:05:22;;;;;;;;;;;21.00;53.50;;;;;;4918092;29;19914;-82
2021/12/24 01:07:49;;;;;;;;;;;21.00;52.80;;;;;;4938281;29;19914;-87
2021/12/24 01:10:18;;;;;;;;;;;21.00;51.90;;;;;;4923809;29;19957;-88
2021/12/24 01:12:44;;;;;;;;;;;21.00;51.70;;;;;;4926958;29;20343;-84
2021/12/24 01:15:13;;;;;;;;;;;21.00;51.70;;;;;;4937997;29;19952;-84
2021/12/24 01:23:27;;;;;;;;;;;21.10;52.20;;;;;;4936195;29;19982;-83
2021/12/24 01:39:07;;;;;;;;;;;21.10;52.80;;;;;;4934687;29;20259;-82
2021/12/24 01:44:24;;;;;;;;;;;21.00;52.90;;;;;;4941711;29;20409;-82
2021/12/24 01:46:50;;;;;;;;;;;21.10;53.10;;;;;;4921565;29;19911;-83
2021/12/24 01:49:16;;;;;;;;;;;21.10;53.10;;;;;;4922731;29;20006;-84
2021/12/24 01:51:42;;;;;;;;;;;21.10;53.20;;;;;;4924077;29;19990;-84
2021/12/24 01:54:10;;;;;;;;;;;21.10;53.20;;;;;;4923338;29;19915;-85
2021/12/24 01:56:36;;;;;;;;;;;21.10;53.30;;;;;;4922217;29;19910;-83
2021/12/24 01:59:02;;;;;;;;;;;21.10;53.30;;;;;;4905584;29;20394;-82
2021/12/24 02:01:28;;;;;;;;;;;21.10;53.40;;;;;;4906574;29;19919;-82
2021/12/24 02:03:54;;;;;;;;;;;21.10;53.30;;;;;;4921593;29;19910;-79
2021/12/24 02:06:19;;;;;;;;;;;21.10;53.30;;;;;;4920975;29;19918;-83
2021/12/24 02:08:45;;;;;;;;;;;21.10;53.20;;;;;;4908535;29;20010;-80
2021/12/24 02:11:11;;;;;;;;;;;21.10;53.60;;;;;;4947959;29;19915;-80
2021/12/24 02:13:38;;;;;;;;;;;21.10;53.20;;;;;;4921988;29;19910;-82
2021/12/24 02:29:25;;;;;;;;;;;21.10;52.80;;;;;;4936203;29;19915;-76
2021/12/24 02:31:51;;;;;;;;;;;21.10;52.80;;;;;;4912633;29;19918;-75
2021/12/24 02:34:17;;;;;;;;;;;21.00;52.90;;;;;;4901823;29;20284;-76
2021/12/24 02:36:43;;;;;;;;;;;21.00;52.90;;;;;;4901514;29;20052;-76
2021/12/24 02:39:08;;;;;;;;;;;21.00;53.00;;;;;;4902845;29;19922;-75
2021/12/24 02:41:34;;;;;;;;;;;21.10;53.10;;;;;;4915496;29;19946;-76
2021/12/24 02:44:00;;;;;;;;;;;21.00;53.10;;;;;;4936561;29;19910;-75
2021/12/24 02:49:14;;;;;;;;;;;21.00;54.30;;;;;;4919289;29;19910;-76
2021/12/24 02:54:25;;;;;;;;;;;21.00;54.40;;;;;;4899997;29;19911;-76
2021/12/24 02:56:54;;;;;;;;;;;21.10;54.50;;;;;;4917217;29;19911;-76
2021/12/24 02:59:26;;;;;;;;;;;21.10;54.60;;;;;;4923459;29;19911;-76
2021/12/24 03:01:55;;;;;;;;;;;21.10;54.60;;;;;;4922241;29;20013;-76
2021/12/24 03:04:21;;;;;;;;;;;21.10;55.00;;;;;;4922902;29;20359;-75
2021/12/24 03:06:48;;;;;;;;;;;21.10;54.60;;;;;;4922984;29;19911;-76
2021/12/24 03:09:16;;;;;;;;;;;21.10;54.90;;;;;;4919833;29;19911;-76
2021/12/24 03:11:43;;;;;;;;;;;21.10;54.70;;;;;;4915519;29;20034;-77
2021/12/24 03:14:09;;;;;;;;;;;21.10;54.60;;;;;;4899179;29;19918;-76
2021/12/24 03:16:37;;;;;;;;;;;21.10;54.40;;;;;;4884188;29;19911;-76
2021/12/24 03:19:03;;;;;;;;;;;21.10;54.20;;;;;;4899749;29;19911;-76
2021/12/24 03:21:38;;;;;;;;;;;21.10;54.60;;;;;;4931185;29;19915;-77
2021/12/24 03:26:30;;;;;;;;;;;21.10;54.40;;;;;;4935342;29;20394;-77
2021/12/24 03:28:56;;;;;;;;;;;21.10;55.30;;;;;;4935509;29;19910;-77
2021/12/24 03:31:22;;;;;;;;;;;21.10;55.90;;;;;;4915267;29;20002;-77
2021/12/24 03:33:48;;;;;;;;;;;21.10;55.40;;;;;;4916431;29;19950;-77
2021/12/24 03:36:15;;;;;;;;;;;21.10;54.80;;;;;;4899346;29;19911;-77
2021/12/24 03:38:41;;;;;;;;;;;21.20;54.40;;;;;;4899559;29;19965;-77
2021/12/24 03:41:07;;;;;;;;;;;21.20;54.10;;;;;;4899587;29;20404;-77
2021/12/24 03:43:33;;;;;;;;;;;21.20;53.90;;;;;;4899644;29;20348;-77
2021/12/24 03:46:04;;;;;;;;;;;21.20;54.10;;;;;;4898811;29;19966;-77
2021/12/24 03:48:46;;;;;;;;;;;21.20;54.50;;;;;;4899391;29;19911;-77
2021/12/24 03:56:32;;;;;;;;;;;21.10;54.60;;;;;;4917507;29;19910;-76
2021/12/24 03:58:59;;;;;;;;;;;21.10;54.70;;;;;;4918037;29;19964;-76
2021/12/24 04:02:03;;;;;;;;;;;21.10;54.70;;;;;;4857095;29;20009;-76
2021/12/24 04:04:38;;;;;;;;;;;21.10;54.40;;;;;;4857072;29;20362;-76
2021/12/24 04:07:22;;;;;;;;;;;21.10;54.00;;;;;;4907066;29;20173;-75
2021/12/24 04:10:32;;;;;;;;;;;21.00;53.80;;;;;;4912496;29;19923;-76
2021/12/24 04:13:36;;;;;;;;;;;21.10;53.90;;;;;;4922411;29;19911;-75
2021/12/24 04:16:03;;;;;;;;;;;21.00;53.90;;;;;;4934290;29;20331;-75
2021/12/24 04:26:27;;;;;;;;;;;21.00;54.00;;;;;;4914012;29;19918;-75
2021/12/24 04:28:53;;;;;;;;;;;21.00;54.70;;;;;;4912116;29;19910;-75
2021/12/24 04:31:25;;;;;;;;;;;21.00;54.20;;;;;;4917170;29;19997;-75
2021/12/24 04:34:02;;;;;;;;;;;21.00;54.10;;;;;;4917822;29;19933;-75
2021/12/24 05:03:33;;;;;;;;;;;21.00;54.50;;;;;;4898524;29;19997;-76
2021/12/24 05:09:07;;;;;;;;;;;21.10;54.50;;;;;;4869802;29;19970;-76
2021/12/24 05:11:34;;;;;;;;;;;21.00;54.70;;;;;;4895803;29;20257;-76
2021/12/24 05:13:59;;;;;;;;;;;21.10;54.50;;;;;;4934033;29;20001;-76
2021/12/24 05:16:52;;;;;;;;;;;21.00;54.50;;;;;;4934401;29;19933;-75
2021/12/24 05:22:33;;;;;;;;;;;21.00;54.50;;;;;;4917419;29;20050;-74
2021/12/24 05:25:04;;;;;;;;;;;21.10;54.50;;;;;;4916982;29;19911;-75
2021/12/24 05:27:29;;;;;;;;;;;21.10;54.70;;;;;;4916581;29;20300;-75
2021/12/24 05:29:55;;;;;;;;;;;21.00;54.60;;;;;;4916633;29;20380;-75
2021/12/24 05:32:21;;;;;;;;;;;21.10;54.70;;;;;;4901493;29;20435;-75
2021/12/24 05:34:46;;;;;;;;;;;21.00;54.60;;;;;;4916598;29;19911;-75
2021/12/24 05:37:12;;;;;;;;;;;21.00;54.60;;;;;;4936370;29;19961;-74
2021/12/24 05:39:38;;;;;;;;;;;21.10;54.70;;;;;;4917135;29;20248;-74
2021/12/24 05:42:04;;;;;;;;;;;21.00;54.70;;;;;;4901566;29;19914;-74
2021/12/24 05:44:32;;;;;;;;;;;21.00;54.60;;;;;;4901327;29;19915;-75
2021/12/24 05:47:10;;;;;;;;;;;21.00;54.70;;;;;;4901318;29;20354;-74
2021/12/24 05:49:42;;;;;;;;;;;21.10;54.70;;;;;;4918922;29;19921;-74
2021/12/24 05:52:26;;;;;;;;;;;21.10;54.70;;;;;;4937268;29;19915;-75
2021/12/24 05:54:58;;;;;;;;;;;21.10;54.60;;;;;;4904441;29;19921;-74
2021/12/24 05:57:26;;;;;;;;;;;21.10;54.60;;;;;;4920154;29;20351;-74
2021/12/24 05:59:52;;;;;;;;;;;21.10;54.70;;;;;;4935233;29;19918;-74
2021/12/24 06:02:18;;;;;;;;;;;21.10;54.70;;;;;;4920087;29;19961;-75
2021/12/24 06:04:43;;;;;;;;;;;21.10;54.70;;;;;;4936920;29;19914;-74
2021/12/24 06:07:09;;;;;;;;;;;21.10;54.60;;;;;;4919958;29;20367;-74
2021/12/24 06:09:35;;;;;;;;;;;21.10;54.70;;;;;;4916243;29;20329;-74
2021/12/24 06:12:00;;;;;;;;;;;21.10;54.60;;;;;;4900776;29;19915;-74
2021/12/24 06:14:26;;;;;;;;;;;21.10;54.70;;;;;;4917522;29;19918;-74
2021/12/24 06:17:03;;;;;;;;;;;21.10;54.60;;;;;;4917637;29;19911;-74
2021/12/24 06:19:29;;;;;;;;;;;21.10;54.40;;;;;;4933244;29;19960;-74
2021/12/24 06:21:56;;;;;;;;;;;21.20;54.60;;;;;;4936505;29;19937;-74
2021/12/24 06:24:22;;;;;;;;;;;21.20;54.50;;;;;;4936203;29;19917;-74
2021/12/24 06:26:48;;;;;;;;;;;21.20;54.60;;;;;;4954384;23;19926;-75
2021/12/24 06:29:13;;;;;;;;;;;21.20;54.90;;;;;;4923785;28;20278;-75
2021/12/24 06:31:40;;;;;;;;;;;21.10;54.50;;;;;;4943119;29;19989;-75
2021/12/24 06:34:06;;;;;;;;;;;21.10;54.50;;;;;;4955644;29;20004;-75
2021/12/24 06:36:35;;;;;;;;;;;21.10;54.70;;;;;;4922256;29;19918;-75
2021/12/24 06:39:03;;;;;;;;;;;21.10;54.70;;;;;;4954854;29;19910;-75
2021/12/24 06:41:29;;;;;;;;;;;21.10;54.60;;;;;;4955534;29;20363;-74
2021/12/24 06:43:54;;;;;;;;;;;21.20;54.60;;;;;;4955655;28;19921;-74
2021/12/24 06:46:20;;;;;;;;;;;21.30;56.30;;;;;;4955100;29;20017;-74
2021/12/24 06:48:48;;;;;;;;;;;21.40;56.80;;;;;;4931070;29;20386;-75
2021/12/24 06:51:14;;;;;;;;;;;21.40;56.50;;;;;;4955138;29;19914;-74
2021/12/24 06:53:39;;;;;;;;;;;21.40;56.30;;;;;;4937990;29;19933;-74
2021/12/24 06:56:07;;;;;;;;;;;21.50;56.20;;;;;;4938098;29;19965;-75
2021/12/24 06:58:37;;;;;;;;;;;21.40;56.00;;;;;;4937253;29;19910;-75
2021/12/24 07:01:04;;;;;;;;;;;21.50;55.90;;;;;;4953966;29;19933;-74
2021/12/24 07:03:30;;;;;;;;;;;21.50;56.00;;;;;;4953781;28;19965;-75
2021/12/24 07:05:56;;;;;;;;;;;21.50;55.90;;;;;;4954542;28;20343;-74
2021/12/24 07:08:21;;;;;;;;;;;21.50;55.90;;;;;;4949491;28;20328;-74
2021/12/24 07:10:47;;;;;;;;;;;21.50;55.90;;;;;;4935940;29;19966;-75
2021/12/24 07:13:13;;;;;;;;;;;21.50;55.90;;;;;;4918863;29;19912;-75
2021/12/24 07:15:39;;;;;;;;;;;21.50;55.80;;;;;;4935279;29;19911;-74
2021/12/24 07:18:05;;;;;;;;;;;21.50;56.00;;;;;;4938414;29;19914;-75
2021/12/24 07:20:30;;;;;;;;;;;21.50;56.00;;;;;;4954586;28;20332;-74
2021/12/24 07:22:56;;;;;;;;;;;21.50;56.00;;;;;;4954631;28;19910;-74
2021/12/24 07:25:21;;;;;;;;;;;21.50;55.90;;;;;;4954335;28;19989;-74
2021/12/24 07:27:47;;;;;;;;;;;21.50;55.70;;;;;;4936660;29;19929;-75
2021/12/24 07:30:14;;;;;;;;;;;21.50;55.70;;;;;;4934221;29;19924;-74
2021/12/24 07:32:40;;;;;;;;;;;21.60;55.90;;;;;;4918405;29;20340;-74
2021/12/24 07:35:07;;;;;;;;;;;21.50;55.80;;;;;;4949738;29;20276;-74
2021/12/24 07:37:32;;;;;;;;;;;21.60;55.90;;;;;;4935485;29;19991;-74
2021/12/24 07:39:58;;;;;;;;;;;21.60;55.80;;;;;;4952249;29;19952;-74
2021/12/24 07:42:26;;;;;;;;;;;21.60;55.90;;;;;;4937326;29;19917;-74
2021/12/24 07:44:51;;;;;;;;;;;21.60;55.80;;;;;;4953932;29;20379;-74
2021/12/24 07:47:27;;;;;;;;;;;21.60;55.90;;;;;;4937306;29;19954;-74
2021/12/24 07:50:00;;;;;;;;;;;21.60;56.00;;;;;;4937405;29;20365;-74
2021/12/24 07:52:26;;;;;;;;;;;21.60;55.80;;;;;;4949834;29;19961;-74
2021/12/24 07:54:54;;;;;;;;;;;21.60;56.00;;;;;;4934647;29;19953;-74
2021/12/24 07:57:20;;;;;;;;;;;21.60;56.10;;;;;;4949513;29;19950;-74
2021/12/24 07:59:46;;;;;;;;;;;21.60;55.90;;;;;;4935077;29;19950;-74
2021/12/24 08:02:15;;;;;;;;;;;21.60;56.00;;;;;;4917824;29;19946;-74
2021/12/24 08:04:41;;;;;;;;;;;21.60;56.00;;;;;;4917403;29;20296;-74
2021/12/24 08:07:07;;;;;;;;;;;21.60;56.00;;;;;;4934909;29;19933;-74
2021/12/24 08:09:33;;;;;;;;;;;21.60;56.10;;;;;;4947434;29;19914;-73
2021/12/24 08:11:58;;;;;;;;;;;21.60;56.00;;;;;;4936933;29;19917;-73
2021/12/24 08:14:24;;;;;;;;;;;21.60;56.20;;;;;;4953603;28;19932;-74
2021/12/24 08:16:49;;;;;;;;;;;21.60;56.20;;;;;;4936554;29;19910;-73
2021/12/24 08:19:17;;;;;;;;;;;21.60;56.10;;;;;;4943613;28;19911;-73
2021/12/24 08:21:45;;;;;;;;;;;21.70;56.20;;;;;;4934571;29;19921;-73
2021/12/24 08:24:11;;;;;;;;;;;21.70;56.10;;;;;;4934616;29;19911;-73
2021/12/24 08:26:36;;;;;;;;;;;21.60;56.00;;;;;;4934441;29;19918;-74
2021/12/24 08:29:02;;;;;;;;;;;21.60;56.10;;;;;;4942739;29;19915;-74
2021/12/24 08:31:29;;;;;;;;;;;21.60;56.20;;;;;;4953699;29;19922;-74
2021/12/24 08:33:55;;;;;;;;;;;21.60;56.10;;;;;;4953033;29;20045;-74
2021/12/24 08:36:20;;;;;;;;;;;21.70;56.20;;;;;;4953231;29;20373;-75
2021/12/24 08:38:46;;;;;;;;;;;21.70;56.10;;;;;;4943517;29;20403;-74
2021/12/24 08:41:11;;;;;;;;;;;21.60;56.00;;;;;;4934429;29;19911;-74
2021/12/24 08:43:37;;;;;;;;;;;21.70;56.10;;;;;;4952232;29;19973;-73
2021/12/24 08:46:03;;;;;;;;;;;21.70;56.10;;;;;;4953109;29;20008;-74
2021/12/24 08:48:28;;;;;;;;;;;21.70;56.10;;;;;;4953559;29;19910;-74
2021/12/24 08:50:54;;;;;;;;;;;21.70;56.10;;;;;;4953549;29;20014;-74
2021/12/24 08:53:20;;;;;;;;;;;21.70;56.00;;;;;;4935640;29;19933;-75
2021/12/24 08:55:46;;;;;;;;;;;21.70;56.00;;;;;;4953264;29;20307;-74
2021/12/24 08:58:11;;;;;;;;;;;21.70;56.00;;;;;;4952092;29;19910;-74
2021/12/24 09:00:37;;;;;;;;;;;21.70;56.10;;;;;;4952080;28;20424;-74
2021/12/24 09:03:03;;;;;;;;;;;21.70;56.30;;;;;;4953512;29;20432;-74
2021/12/24 09:05:30;;;;;;;;;;;21.70;56.00;;;;;;4939083;29;20006;-74
2021/12/24 09:07:55;;;;;;;;;;;21.70;56.10;;;;;;4917448;29;19911;-74
2021/12/24 09:10:21;;;;;;;;;;;21.70;56.10;;;;;;4934264;29;19979;-74
2021/12/24 09:12:48;;;;;;;;;;;21.80;56.00;;;;;;4952206;29;20295;-73
2021/12/24 09:15:15;;;;;;;;;;;21.70;56.10;;;;;;4937611;29;20009;-74
2021/12/24 09:17:46;;;;;;;;;;;21.80;56.30;;;;;;4955386;29;19949;-75
2021/12/24 09:20:14;;;;;;;;;;;21.70;56.50;;;;;;4928136;29;19961;-75
2021/12/24 09:22:41;;;;;;;;;;;21.70;56.40;;;;;;4948587;29;20018;-75
2021/12/24 09:25:07;;;;;;;;;;;21.70;56.40;;;;;;4937399;29;19914;-75
2021/12/24 09:27:33;;;;;;;;;;;21.70;56.30;;;;;;4937298;29;19918;-75
2021/12/24 09:29:59;;;;;;;;;;;21.70;56.30;;;;;;4938047;29;19915;-75
2021/12/24 09:32:28;;;;;;;;;;;21.70;56.30;;;;;;4956480;28;20368;-74
2021/12/24 09:34:54;;;;;;;;;;;21.70;56.30;;;;;;4956239;29;19910;-75
2021/12/24 09:37:20;;;;;;;;;;;21.70;56.30;;;;;;4951553;28;19910;-75
2021/12/24 09:39:46;;;;;;;;;;;21.70;56.40;;;;;;4956306;29;19910;-74
2021/12/24 09:42:12;;;;;;;;;;;21.70;56.30;;;;;;4956380;28;20012;-74
2021/12/24 09:44:37;;;;;;;;;;;21.70;56.30;;;;;;4955775;29;19915;-75
2021/12/24 09:47:03;;;;;;;;;;;21.70;56.40;;;;;;4950230;29;20394;-75
2021/12/24 09:49:29;;;;;;;;;;;21.70;56.20;;;;;;4951962;28;19911;-75
2021/12/24 09:51:55;;;;;;;;;;;21.70;56.20;;;;;;4956173;29;19910;-74
2021/12/24 09:54:22;;;;;;;;;;;21.70;56.20;;;;;;4922948;29;19949;-75
2021/12/24 09:56:48;;;;;;;;;;;21.70;56.20;;;;;;4956068;29;20091;-75
2021/12/24 09:59:14;;;;;;;;;;;21.80;56.20;;;;;;4938831;29;19961;-74
2021/12/24 10:01:44;;;;;;;;;;;21.70;56.20;;;;;;4938490;29;19937;-75
2021/12/24 10:04:11;;;;;;;;;;;21.70;56.30;;;;;;4954878;28;20431;-74
2021/12/24 10:06:38;;;;;;;;;;;21.80;56.30;;;;;;4955879;29;19910;-72
2021/12/24 10:09:05;;;;;;;;;;;21.80;56.10;;;;;;4956134;28;19910;-72
2021/12/24 10:11:45;;;;;;;;;;;21.50;55.60;;;;;;4955858;29;19969;-74
2021/12/24 10:14:11;;;;;;;;;;;21.20;52.90;;;;;;4955077;29;20001;-74
2021/12/24 10:16:40;;;;;;;;;;;21.20;53.40;;;;;;4923895;29;19994;-74
2021/12/24 10:19:08;;;;;;;;;;;21.30;52.00;;;;;;4951694;28;19946;-74
2021/12/24 10:21:34;;;;;;;;;;;21.40;51.50;;;;;;4936417;29;20398;-74
2021/12/24 10:24:10;;;;;;;;;;;21.50;51.20;;;;;;4950967;29;19922;-74
2021/12/24 10:26:36;;;;;;;;;;;21.50;51.10;;;;;;4944683;29;19954;-74
2021/12/24 10:29:07;;;;;;;;;;;21.60;51.30;;;;;;4938609;29;19911;-73
2021/12/24 10:31:32;;;;;;;;;;;21.60;51.70;;;;;;4954868;28;19964;-75
2021/12/24 10:34:24;;;;;;;;;;;21.60;51.80;;;;;;4954547;29;19950;-74
2021/12/24 10:36:55;;;;;;;;;;;21.60;52.00;;;;;;4937166;29;20459;-75
2021/12/24 10:39:41;;;;;;;;;;;21.70;52.10;;;;;;4955730;28;19977;-75
2021/12/24 10:42:15;;;;;;;;;;;21.70;52.30;;;;;;4938130;29;19936;-75
2021/12/24 10:44:42;;;;;;;;;;;21.70;52.30;;;;;;4938034;29;20343;-74
2021/12/24 10:47:16;;;;;;;;;;;21.80;52.40;;;;;;4955303;28;19915;-74
2021/12/24 10:55:02;;;;;;;;;;;21.70;52.00;;;;;;4952371;28;19994;-74
2021/12/24 10:57:27;;;;;;;;;;;21.80;53.10;;;;;;4936079;29;20303;-74
2021/12/24 10:59:54;;;;;;;;;;;21.80;52.60;;;;;;4935989;29;19911;-73
2021/12/24 11:02:24;;;;;;;;;;;21.90;53.00;;;;;;4935945;29;20290;-74
2021/12/24 11:04:53;;;;;;;;;;;21.90;52.80;;;;;;4918598;29;19918;-75
2021/12/24 11:07:32;;;;;;;;;;;21.90;53.00;;;;;;4936341;29;19911;-74
2021/12/24 11:10:09;;;;;;;;;;;21.90;52.80;;;;;;4935828;29;20375;-74
2021/12/24 11:12:36;;;;;;;;;;;21.90;53.50;;;;;;4935962;29;19915;-75
2021/12/24 11:15:01;;;;;;;;;;;21.90;53.70;;;;;;4935402;29;19911;-74
2021/12/24 11:17:37;;;;;;;;;;;21.90;53.30;;;;;;4950514;29;20260;-75
2021/12/24 11:20:08;;;;;;;;;;;21.90;52.90;;;;;;4949632;29;19910;-74
2021/12/24 11:22:48;;;;;;;;;;;21.90;54.10;;;;;;4931956;29;19918;-75
2021/12/24 11:25:14;;;;;;;;;;;22.00;53.20;;;;;;4935096;29;19915;-78
2021/12/24 11:27:40;;;;;;;;;;;22.00;54.10;;;;;;4950124;28;19914;-76
2021/12/24 11:30:05;;;;;;;;;;;22.00;53.90;;;;;;4949696;28;20005;-74
2021/12/24 11:32:31;;;;;;;;;;;22.00;55.80;;;;;;4950459;29;20713;-74
2021/12/24 11:34:57;;;;;;;;;;;22.00;55.10;;;;;;4934387;29;19955;-74
2021/12/24 11:37:22;;;;;;;;;;;22.00;53.90;;;;;;4950089;29;20284;-74
2021/12/24 11:39:48;;;;;;;;;;;21.90;53.70;;;;;;4945426;29;19916;-74
2021/12/24 11:42:14;;;;;;;;;;;21.90;53.60;;;;;;4954478;29;20120;-74
2021/12/24 11:44:40;;;;;;;;;;;21.90;54.00;;;;;;4936827;29;19996;-75
2021/12/24 11:47:06;;;;;;;;;;;21.90;54.00;;;;;;4954080;29;20295;-74
2021/12/24 11:49:32;;;;;;;;;;;21.90;53.90;;;;;;4954300;29;19910;-75
2021/12/24 11:51:58;;;;;;;;;;;21.90;54.70;;;;;;4954204;29;20324;-75
2021/12/24 11:54:24;;;;;;;;;;;22.00;54.20;;;;;;4953935;28;19989;-75
2021/12/24 11:56:52;;;;;;;;;;;22.00;54.70;;;;;;4952386;29;19917;-75
2021/12/24 11:59:33;;;;;;;;;;;22.00;54.60;;;;;;4954133;29;19915;-74
2021/12/24 12:01:59;;;;;;;;;;;22.10;56.60;;;;;;4954040;29;19910;-74
2021/12/24 12:04:24;;;;;;;;;;;22.10;56.50;;;;;;4935493;29;19910;-75
2021/12/24 12:06:51;;;;;;;;;;;22.20;56.70;;;;;;4942284;29;20013;-75
2021/12/24 12:09:16;;;;;;;;;;;22.30;57.50;;;;;;4935096;29;19917;-76
2021/12/24 12:11:43;;;;;;;;;;;22.20;55.80;;;;;;4933657;29;19911;-76
2021/12/24 12:14:14;;;;;;;;;;;22.30;56.40;;;;;;4949496;29;19974;-77
2021/12/24 12:16:42;;;;;;;;;;;22.30;57.00;;;;;;4933481;29;19917;-77
2021/12/24 12:22:14;;;;;;;;;;;22.30;56.80;;;;;;4936269;29;19911;-76
2021/12/24 12:25:01;;;;;;;;;;;22.30;57.80;;;;;;4954017;29;19934;-75
2021/12/24 12:27:26;;;;;;;;;;;22.40;56.50;;;;;;4951885;23;19929;-82
2021/12/24 12:29:52;;;;;;;;;;;22.40;57.70;;;;;;4917896;28;20005;-82
2021/12/24 12:32:17;;;;;;;;;;;22.40;58.00;;;;;;4953669;28;19937;-81
2021/12/24 12:34:43;;;;;;;;;;;22.40;57.90;;;;;;4936460;29;19910;-80
2021/12/24 12:37:13;;;;;;;;;;;22.40;58.20;;;;;;4936322;29;19914;-82
2021/12/24 12:39:38;;;;;;;;;;;22.50;58.50;;;;;;4937393;29;20583;-81
2021/12/24 12:42:04;;;;;;;;;;;22.40;59.20;;;;;;4936788;29;20009;-77
2021/12/24 12:44:32;;;;;;;;;;;22.30;58.00;;;;;;4953689;28;19911;-81
2021/12/24 12:47:11;;;;;;;;;;;22.20;56.20;;;;;;4956230;28;19914;-81
2021/12/24 12:49:37;;;;;;;;;;;22.20;53.50;;;;;;4940322;29;20352;-76
2021/12/24 12:52:07;;;;;;;;;;;22.20;53.40;;;;;;4943249;28;19918;-79
2021/12/24 12:54:40;;;;;;;;;;;22.20;54.20;;;;;;4956326;28;19985;-79
2021/12/24 12:57:14;;;;;;;;;;;22.30;54.60;;;;;;4957842;29;19914;-79
2021/12/24 12:59:40;;;;;;;;;;;22.40;54.60;;;;;;4957427;29;19917;-80
2021/12/24 13:02:06;;;;;;;;;;;22.40;53.60;;;;;;4957176;28;19914;-80
2021/12/24 13:04:32;;;;;;;;;;;22.40;53.80;;;;;;4956896;29;20006;-79
2021/12/24 13:06:58;;;;;;;;;;;22.40;53.70;;;;;;4956747;28;19914;-79
2021/12/24 13:09:25;;;;;;;;;;;22.40;53.60;;;;;;4957203;28;19914;-80
2021/12/24 13:11:52;;;;;;;;;;;22.40;53.80;;;;;;4957497;28;19918;-80
2021/12/24 13:14:18;;;;;;;;;;;22.40;54.90;;;;;;4924235;29;19910;-80
2021/12/24 13:16:54;;;;;;;;;;;22.40;56.50;;;;;;4957255;29;19910;-78
2021/12/24 13:19:54;;;;;;;;;;;22.40;57.20;;;;;;4942213;28;19915;-81
2021/12/24 13:22:28;;;;;;;;;;;22.40;56.50;;;;;;4958663;28;19918;-81
2021/12/24 13:24:56;;;;;;;;;;;22.40;56.50;;;;;;4944664;28;19914;-79
2021/12/24 13:27:24;;;;;;;;;;;22.40;56.60;;;;;;4937637;29;20629;-81
2021/12/24 13:30:03;;;;;;;;;;;22.40;55.60;;;;;;4952484;28;19923;-81
2021/12/24 13:32:29;;;;;;;;;;;22.40;54.90;;;;;;4938247;29;19934;-84
2021/12/24 13:34:55;;;;;;;;;;;22.40;55.00;;;;;;4937638;29;19950;-79
2021/12/24 13:37:21;;;;;;;;;;;22.30;55.60;;;;;;4938021;29;19911;-78
2021/12/24 13:40:12;;;;;;;;;;;22.30;55.40;;;;;;4964980;28;19910;-78
2021/12/24 13:42:50;;;;;;;;;;;22.30;54.50;;;;;;5305676;23;19921;-75
2021/12/24 14:01:27;;;;;;;;;;;22.10;51.30;;;;;;5027761;23;19949;-82
2021/12/24 14:06:50;;;;;;;;;;;22.10;51.50;;;;;;4886080;29;19926;-88
2021/12/24 14:09:33;;;;;;;;;;;22.10;50.80;;;;;;4900143;29;19938;-94
2021/12/24 14:12:00;;;;;;;;;;;22.10;51.30;;;;;;4894985;29;20260;-83
2021/12/24 14:14:39;;;;;;;;;;;22.10;52.00;;;;;;4858821;29;20443;-85
2021/12/24 14:20:05;;;;;;;;;;;21.80;52.90;;;;;;4884919;29;19938;-90
2021/12/24 14:22:41;;;;;;;;;;;21.70;49.60;;;;;;4900138;29;19935;-96
2021/12/24 14:25:37;;;;;;;;;;;21.90;49.40;;;;;;4884033;29;20388;-90
2021/12/24 14:28:03;;;;;;;;;;;22.00;49.60;;;;;;4901068;29;20002;-90
2021/12/24 14:30:31;;;;;;;;;;;22.00;49.50;;;;;;4896486;29;19955;-89
2021/12/24 14:32:58;;;;;;;;;;;22.00;49.20;;;;;;4890558;29;19937;-82
2021/12/24 14:35:25;;;;;;;;;;;22.10;50.20;;;;;;4900593;29;19911;-81
2021/12/24 14:38:06;;;;;;;;;;;22.10;50.20;;;;;;4903790;29;19998;-88
2021/12/24 14:40:33;;;;;;;;;;;22.10;51.20;;;;;;4915354;29;20312;-84
2021/12/24 14:42:59;;;;;;;;;;;22.10;50.80;;;;;;4898015;29;19987;-78
2021/12/24 14:45:32;;;;;;;;;;;22.20;50.50;;;;;;4868649;29;19911;-88
2021/12/24 14:48:20;;;;;;;;;;;22.10;51.50;;;;;;4903801;29;19943;-94
2021/12/24 14:51:43;;;;;;;;;;;22.20;51.50;;;;;;5420304;23;19985;-87
2021/12/24 14:57:20;;;;;;;;;;;22.20;52.30;;;;;;5379825;23;19923;-88
2021/12/24 14:59:48;;;;;;;;;;;22.30;53.40;;;;;;5574525;23;20174;-84
2021/12/24 15:02:14;;;;;;;;;;;22.30;52.90;;;;;;4946242;28;19953;-86
2021/12/24 15:04:53;;;;;;;;;;;22.30;54.20;;;;;;4929520;29;20370;-92
2021/12/24 15:07:19;;;;;;;;;;;22.40;57.50;;;;;;4923434;29;19910;-86
2021/12/24 15:09:46;;;;;;;;;;;22.40;58.30;;;;;;4917372;29;19919;-86
2021/12/24 15:12:16;;;;;;;;;;;22.50;59.10;;;;;;4918302;29;20005;-79
2021/12/24 15:14:42;;;;;;;;;;;22.50;57.90;;;;;;4938537;29;19941;-80
2021/12/24 15:17:07;;;;;;;;;;;22.50;57.30;;;;;;4937644;29;19922;-86
2021/12/24 15:19:33;;;;;;;;;;;22.60;59.50;;;;;;4938825;29;19993;-87
2021/12/24 15:21:59;;;;;;;;;;;22.60;58.70;;;;;;4924908;29;19968;-88
2021/12/24 15:24:32;;;;;;;;;;;22.70;59.40;;;;;;4939121;29;19929;-91
2021/12/24 15:26:58;;;;;;;;;;;22.70;57.80;;;;;;4922162;29;19918;-78
2021/12/24 15:29:23;;;;;;;;;;;22.60;59.10;;;;;;4919955;29;19922;-84
2021/12/24 15:31:49;;;;;;;;;;;22.50;58.60;;;;;;4934950;29;19974;-82
2021/12/24 15:34:44;;;;;;;;;;;22.50;58.20;;;;;;4927394;29;19910;-77
2021/12/24 15:37:10;;;;;;;;;;;22.40;58.30;;;;;;4958336;29;20002;-80
2021/12/24 15:39:36;;;;;;;;;;;22.50;59.00;;;;;;4952895;29;19981;-78
2021/12/24 15:42:01;;;;;;;;;;;22.40;59.40;;;;;;4951488;29;19940;-87
2021/12/24 15:44:28;;;;;;;;;;;22.40;59.30;;;;;;4933496;29;19947;-86
2021/12/24 15:46:53;;;;;;;;;;;22.30;59.00;;;;;;4948810;29;19911;-82
2021/12/24 15:49:19;;;;;;;;;;;22.20;58.60;;;;;;4948671;28;20414;-82
2021/12/24 15:51:45;;;;;;;;;;;22.10;57.60;;;;;;4937341;29;20358;-82
2021/12/24 15:54:11;;;;;;;;;;;22.10;57.00;;;;;;4936147;29;20307;-85
2021/12/24 15:56:36;;;;;;;;;;;22.20;56.90;;;;;;4937086;29;19922;-80
2021/12/24 15:59:02;;;;;;;;;;;22.10;56.90;;;;;;4953572;29;19957;-91
2021/12/24 16:01:28;;;;;;;;;;;22.20;56.60;;;;;;4936131;29;19976;-83
2021/12/24 16:03:53;;;;;;;;;;;22.20;56.80;;;;;;4921304;29;19921;-79
2021/12/24 16:06:20;;;;;;;;;;;22.20;56.70;;;;;;4928977;29;19914;-79
2021/12/24 16:08:47;;;;;;;;;;;22.30;56.80;;;;;;4933531;29;20025;-84
2021/12/24 16:11:12;;;;;;;;;;;22.30;57.00;;;;;;4949713;28;19921;-79
2021/12/24 16:13:38;;;;;;;;;;;22.20;56.70;;;;;;4953168;28;19910;-77
2021/12/24 16:16:06;;;;;;;;;;;22.10;55.60;;;;;;4936765;29;19910;-82
2021/12/24 16:18:32;;;;;;;;;;;22.00;56.30;;;;;;4956359;28;19981;-87
2021/12/24 16:20:57;;;;;;;;;;;22.10;55.40;;;;;;4918191;29;19914;-84
2021/12/24 16:23:24;;;;;;;;;;;22.10;55.20;;;;;;4932361;28;20012;-82
2021/12/24 16:25:50;;;;;;;;;;;22.10;55.10;;;;;;4919644;29;19917;-79
2021/12/24 16:28:15;;;;;;;;;;;22.10;54.90;;;;;;4936496;29;19911;-78
2021/12/24 16:30:41;;;;;;;;;;;22.10;54.40;;;;;;4921005;29;19973;-88
2021/12/24 16:33:07;;;;;;;;;;;22.10;54.60;;;;;;4920851;29;19911;-83
2021/12/24 16:35:36;;;;;;;;;;;22.10;54.10;;;;;;4934888;29;19911;-79
2021/12/24 16:38:11;;;;;;;;;;;22.10;54.40;;;;;;4934032;29;19911;-78
2021/12/24 16:40:43;;;;;;;;;;;22.10;54.30;;;;;;4937566;29;19910;-80
2021/12/24 16:43:11;;;;;;;;;;;22.20;54.40;;;;;;4934755;29;19921;-77